Time;durP1;ratioP1;P1;durP2;ratioP2;P2;SDS_P1;SDS_P2;PMS_P1;PMS_P2;Temp;Humidity;BMP_temperature;BMP_pressure;BME280_temperature;BME280_humidity;BME280_pressure;Samples;Min_cycle;Max_cycle;Signal;HPM_P1;HPM_P2
2022/03/09 00:01:20;;;;;;;;;71.00;52.50;;;;;8.75;43.76;101568.06;5078224;27;45532;-46
2022/03/09 00:03:45;;;;;;;;;65.25;50.00;;;;;8.72;44.37;101566.53;5077822;27;45734;-49
2022/03/09 00:06:11;;;;;;;;;74.00;55.00;;;;;8.70;43.87;101565.78;5077855;27;45322;-47
2022/03/09 00:08:37;;;;;;;;;79.25;53.50;;;;;8.71;44.64;101567.47;5077780;27;45372;-48
2022/03/09 00:11:03;;;;;;;;;69.50;49.00;;;;;8.69;44.02;101566.75;5078374;27;45355;-45
2022/03/09 00:13:28;;;;;;;;;66.50;50.50;;;;;8.69;43.48;101564.09;5077684;27;46368;-45
2022/03/09 00:15:53;;;;;;;;;67.00;52.75;;;;;8.60;43.49;101551.50;5077754;27;45361;-44
2022/03/09 00:18:19;;;;;;;;;66.50;50.75;;;;;8.67;44.15;101573.09;5077694;27;45436;-45
2022/03/09 00:20:45;;;;;;;;;78.00;53.00;;;;;8.59;43.63;101556.91;5077699;27;45499;-47
2022/03/09 00:23:10;;;;;;;;;61.75;47.00;;;;;8.70;44.13;101567.59;5077513;27;46259;-47
2022/03/09 00:25:36;;;;;;;;;65.75;50.75;;;;;8.70;44.15;101573.72;5077314;27;45252;-49
2022/03/09 00:28:01;;;;;;;;;26.25;13.75;;;;;8.71;43.42;101563.97;5077805;27;45449;-48
2022/03/09 00:30:27;;;;;;;;;69.00;51.50;;;;;8.69;44.50;101572.03;5077590;27;45440;-44
2022/03/09 00:32:52;;;;;;;;;70.75;52.25;;;;;8.67;44.12;101571.28;5077211;27;45985;-44
2022/03/09 00:35:17;;;;;;;;;74.00;51.75;;;;;8.68;43.72;101590.72;5077487;27;45389;-48
2022/03/09 00:37:43;;;;;;;;;48.25;30.00;;;;;8.63;43.65;101583.09;5077409;27;45404;-47
2022/03/09 00:40:08;;;;;;;;;66.75;50.50;;;;;8.60;43.37;101588.66;5076513;28;45437;-48
2022/03/09 00:42:36;;;;;;;;;74.50;53.25;;;;;8.57;44.00;101588.88;5076901;27;45424;-45
2022/03/09 00:45:01;;;;;;;;;67.25;49.75;;;;;8.54;44.27;101593.53;5077142;27;45322;-45
2022/03/09 00:47:26;;;;;;;;;68.25;48.75;;;;;8.55;43.60;101596.06;5077461;27;45304;-46
2022/03/09 00:49:52;;;;;;;;;67.00;50.75;;;;;8.55;44.50;101593.41;5077017;27;45347;-45
2022/03/09 00:52:17;;;;;;;;;72.00;51.25;;;;;8.54;44.36;101594.38;5077032;27;46160;-45
2022/03/09 00:54:42;;;;;;;;;74.75;54.00;;;;;8.54;43.39;101601.50;5076983;27;45307;-46
2022/03/09 00:57:08;;;;;;;;;65.25;49.25;;;;;8.51;44.61;101599.91;5077178;27;45466;-43
2022/03/09 00:59:33;;;;;;;;;65.50;49.75;;;;;8.50;44.76;101604.38;5077360;27;45409;-48
2022/03/09 01:01:58;;;;;;;;;61.75;50.25;;;;;8.47;44.50;101603.78;5076913;27;47008;-47
2022/03/09 01:04:24;;;;;;;;;67.25;50.50;;;;;8.47;44.17;101601.13;5076669;27;45354;-47
2022/03/09 01:06:49;;;;;;;;;71.25;53.50;;;;;8.43;44.95;101612.91;5076866;27;45492;-47
2022/03/09 01:09:14;;;;;;;;;70.25;52.00;;;;;8.40;44.46;101599.88;5077200;27;45391;-47
2022/03/09 01:11:40;;;;;;;;;69.50;54.50;;;;;8.39;44.80;101604.31;5076641;27;45365;-45
2022/03/09 01:14:05;;;;;;;;;66.50;49.50;;;;;8.35;45.20;101597.50;5076896;27;45393;-45
2022/03/09 01:16:31;;;;;;;;;74.50;56.00;;;;;8.38;44.58;101599.97;5077033;27;45358;-47
2022/03/09 01:18:56;;;;;;;;;80.25;54.75;;;;;8.38;44.77;101620.31;5076939;27;45397;-43
2022/03/09 01:21:21;;;;;;;;;72.00;54.00;;;;;8.37;45.37;101603.56;5076668;27;45897;-46
2022/03/09 01:23:47;;;;;;;;;62.75;51.75;;;;;8.38;44.79;101609.72;5076662;27;45421;-48
2022/03/09 01:26:12;;;;;;;;;75.75;52.00;;;;;8.35;44.72;101608.13;5076801;27;45373;-47
2022/03/09 01:28:38;;;;;;;;;76.50;55.25;;;;;8.33;44.69;101617.97;5076754;27;45424;-45
2022/03/09 01:31:03;;;;;;;;;84.50;51.75;;;;;8.32;44.85;101616.28;5076564;27;45308;-47
2022/03/09 01:33:28;;;;;;;;;75.25;55.25;;;;;8.31;45.23;101616.41;5076446;27;45211;-44
2022/03/09 01:35:54;;;;;;;;;71.75;54.75;;;;;8.33;45.34;101609.19;5076352;27;45303;-48
2022/03/09 01:38:19;;;;;;;;;69.25;52.00;;;;;8.34;45.80;101613.50;5076465;27;45348;-48
2022/03/09 01:40:45;;;;;;;;;70.00;52.75;;;;;8.35;45.77;101601.97;5075180;28;45967;-47
2022/03/09 01:43:13;;;;;;;;;74.25;50.50;;;;;8.37;45.59;101598.28;5076270;27;45347;-48
2022/03/09 01:45:39;;;;;;;;;76.00;53.50;;;;;8.39;46.26;101606.13;5076555;27;45407;-46
2022/03/09 01:48:04;;;;;;;;;66.50;49.25;;;;;8.39;45.70;101606.13;5076704;27;45313;-44
2022/03/09 01:50:29;;;;;;;;;68.50;53.00;;;;;8.38;45.55;101597.31;5075957;28;46087;-46
2022/03/09 01:52:55;;;;;;;;;70.25;53.50;;;;;8.36;44.67;101603.66;5076302;27;45478;-44
2022/03/09 01:55:21;;;;;;;;;71.25;52.50;;;;;8.33;45.48;101596.75;5076533;27;45310;-47
2022/03/09 01:57:46;;;;;;;;;77.25;55.00;;;;;8.31;45.34;101595.19;5076624;27;45497;-49
2022/03/09 02:00:12;;;;;;;;;75.00;53.50;;;;;8.27;45.99;101609.63;5076014;27;45666;-44
2022/03/09 02:02:37;;;;;;;;;76.50;55.75;;;;;8.16;46.14;101590.03;5076055;27;45461;-48
2022/03/09 02:05:03;;;;;;;;;70.75;51.75;;;;;8.21;46.36;101590.53;5076256;27;45345;-46
2022/03/09 02:10:17;;;;;;;;;72.00;53.75;;;;;8.16;46.26;101602.44;5079487;27;45790;-47
2022/03/09 02:12:42;;;;;;;;;71.00;52.75;;;;;8.13;45.94;101600.88;5079511;27;45490;-46
2022/03/09 02:15:08;;;;;;;;;76.00;50.50;;;;;8.01;46.14;101585.84;5079663;27;45288;-47
2022/03/09 02:17:33;;;;;;;;;72.00;55.00;;;;;8.09;46.70;101591.44;5079701;27;45520;-47
2022/03/09 02:19:59;;;;;;;;;76.75;55.25;;;;;8.06;46.21;101590.81;5079322;28;45958;-47
2022/03/09 02:22:39;;;;;;;;;73.25;54.00;;;;;8.00;46.82;101587.63;5079441;27;45351;-48
2022/03/09 02:25:13;;;;;;;;;71.25;55.00;;;;;7.98;46.72;101586.06;5079432;27;45222;-46
2022/03/09 02:27:39;;;;;;;;;76.00;54.00;;;;;7.95;47.23;101592.41;5079662;27;45420;-46
2022/03/09 02:30:06;;;;;;;;;79.25;56.25;;;;;7.92;47.35;101589.13;5079042;27;46184;-44
2022/03/09 02:32:32;;;;;;;;;76.50;54.00;;;;;7.83;47.11;101579.19;5079354;27;45177;-45
2022/03/09 02:34:57;;;;;;;;;70.75;53.00;;;;;7.81;47.25;101581.13;5079406;27;45252;-45
2022/03/09 02:37:23;;;;;;;;;83.00;56.25;;;;;7.78;47.59;101586.63;5079428;28;45423;-47
2022/03/09 02:39:48;;;;;;;;;79.50;56.25;;;;;7.74;47.73;101586.81;5079005;28;46211;-46
2022/03/09 02:42:15;;;;;;;;;73.75;56.50;;;;;7.64;48.16;101582.28;5079209;27;45446;-47
2022/03/09 02:44:41;;;;;;;;;75.00;54.00;;;;;7.74;47.68;101589.47;5079059;27;45609;-47
2022/03/09 02:47:07;;;;;;;;;74.75;55.00;;;;;7.77;47.52;101587.59;5079196;27;45500;-47
2022/03/09 02:49:33;;;;;;;;;81.25;58.00;;;;;7.79;48.19;101589.16;5078951;27;46073;-47
2022/03/09 02:51:59;;;;;;;;;81.25;57.25;;;;;7.77;48.50;101592.88;5078794;27;45503;-47
2022/03/09 02:54:24;;;;;;;;;71.75;52.25;;;;;7.78;48.18;101597.22;5079267;27;45404;-45
2022/03/09 02:56:49;;;;;;;;;81.00;53.75;;;;;7.72;47.35;101599.34;5079238;27;45392;-45
2022/03/09 02:59:15;;;;;;;;;70.00;53.75;;;;;7.66;47.98;101602.41;5078765;27;46280;-49
2022/03/09 03:01:40;;;;;;;;;83.00;54.75;;;;;7.67;48.27;101604.13;5078729;27;45377;-44
2022/03/09 03:04:05;;;;;;;;;84.25;59.25;;;;;7.64;48.55;101614.91;5078867;27;45303;-46
2022/03/09 03:06:31;;;;;;;;;70.75;56.25;;;;;7.60;48.06;101613.44;5078988;27;45429;-46
2022/03/09 03:08:56;;;;;;;;;73.50;56.50;;;;;7.55;49.16;101623.50;5078471;27;46312;-45
2022/03/09 03:11:22;;;;;;;;;77.50;57.75;;;;;7.51;48.43;101619.38;5078637;27;45260;-47
2022/03/09 03:13:49;;;;;;;;;85.75;61.00;;;;;7.48;48.90;101611.63;5078753;27;45337;-46
2022/03/09 03:16:14;;;;;;;;;77.50;56.75;;;;;7.43;49.86;101622.53;5078866;27;45460;-43
2022/03/09 03:18:40;;;;;;;;;80.50;56.25;;;;;7.45;49.31;101619.78;5077582;27;46020;-47
2022/03/09 03:21:05;;;;;;;;;76.50;56.75;;;;;7.45;48.70;101619.78;5077922;27;45427;-43
2022/03/09 03:23:32;;;;;;;;;83.00;57.25;;;;;7.46;49.32;101618.84;5078741;27;45353;-43
2022/03/09 03:25:59;;;;;;;;;75.50;56.75;;;;;7.42;48.26;101615.56;5078698;27;45444;-45
2022/03/09 03:28:25;;;;;;;;;82.50;56.50;;;;;7.39;48.79;101614.91;5078197;27;46271;-47
2022/03/09 03:30:51;;;;;;;;;74.75;54.75;;;;;7.33;50.08;101613.53;5078596;27;45465;-46
2022/03/09 03:33:18;;;;;;;;;82.00;60.00;;;;;7.25;50.20;101608.75;5078377;27;45342;-45
2022/03/09 03:35:44;;;;;;;;;78.50;62.25;;;;;7.22;50.17;101608.13;5078545;27;45458;-44
2022/03/09 03:38:10;;;;;;;;;74.75;54.50;;;;;7.23;50.32;101601.88;5078130;27;47055;-43
2022/03/09 03:40:36;;;;;;;;;76.00;61.00;;;;;7.25;50.24;101599.97;5078286;27;45331;-46
2022/03/09 03:43:02;;;;;;;;;80.75;57.75;;;;;7.29;49.57;101612.06;5078071;27;45394;-48
2022/03/09 03:45:27;;;;;;;;;80.50;58.00;;;;;7.30;49.77;101607.59;5078379;27;45227;-49
2022/03/09 03:47:53;;;;;;;;;69.50;51.50;;;;;7.30;49.68;101610.25;5078114;27;46290;-47
2022/03/09 03:50:19;;;;;;;;;80.25;58.75;;;;;7.27;49.61;101615.75;5078012;27;45430;-45
2022/03/09 03:52:44;;;;;;;;;78.25;58.50;;;;;7.27;50.51;101610.44;5078019;27;45299;-46
2022/03/09 03:55:10;;;;;;;;;82.50;59.75;;;;;7.25;49.63;101619.34;5078155;27;45414;-48
2022/03/09 03:57:35;;;;;;;;;88.75;61.25;;;;;7.21;50.16;101612.56;5078133;27;45297;-44
2022/03/09 04:00:01;;;;;;;;;77.25;53.25;;;;;7.21;49.54;101609.06;5077894;27;45221;-46
2022/03/09 04:02:26;;;;;;;;;77.25;56.50;;;;;7.17;50.12;101621.66;5078275;27;45242;-45
2022/03/09 04:04:52;;;;;;;;;80.25;59.00;;;;;7.13;49.70;101620.16;5078190;27;45327;-47
2022/03/09 04:07:18;;;;;;;;;84.00;61.00;;;;;7.08;49.97;101618.75;5077450;27;46175;-43
2022/03/09 04:09:44;;;;;;;;;78.75;56.50;;;;;7.06;50.65;101624.16;5077670;27;45284;-45
2022/03/09 04:12:09;;;;;;;;;89.25;61.50;;;;;7.00;50.33;101628.09;5077971;27;45377;-43
2022/03/09 04:14:35;;;;;;;;;71.00;54.50;;;;;6.99;48.92;101622.88;5077932;27;45525;-44
2022/03/09 04:17:00;;;;;;;;;79.00;59.00;;;;;6.94;50.95;101628.47;5077426;27;46927;-45
2022/03/09 04:19:26;;;;;;;;;79.75;60.25;;;;;6.92;50.43;101624.25;5077508;27;45374;-44
2022/03/09 04:21:51;;;;;;;;;78.00;58.50;;;;;6.77;50.60;101606.75;5077402;27;45384;-45
2022/03/09 04:24:16;;;;;;;;;81.00;56.75;;;;;6.87;51.10;101626.31;5077945;27;45376;-45
2022/03/09 04:26:42;;;;;;;;;78.75;56.00;;;;;6.80;51.28;101628.53;5077405;27;46176;-43
2022/03/09 04:29:07;;;;;;;;;75.50;58.25;;;;;6.79;51.68;101623.38;5077353;27;45287;-44
2022/03/09 04:31:33;;;;;;;;;89.75;64.00;;;;;6.74;52.01;101623.63;5077164;27;45438;-48
2022/03/09 04:33:58;;;;;;;;;75.25;58.25;;;;;6.74;51.70;101616.59;5077603;27;45417;-46
2022/03/09 04:36:23;;;;;;;;;66.50;49.50;;;;;6.75;51.82;101617.44;5077394;27;47167;-48
2022/03/09 04:38:49;;;;;;;;;82.75;61.75;;;;;6.75;52.06;101622.72;5077277;27;45432;-45
2022/03/09 04:41:14;;;;;;;;;82.50;59.50;;;;;6.75;51.70;101626.19;5077270;27;45754;-47
2022/03/09 04:43:40;;;;;;;;;81.25;57.25;;;;;6.77;51.90;101628.75;5077412;27;46144;-46
2022/03/09 04:46:05;;;;;;;;;78.75;59.00;;;;;6.72;52.24;101631.69;5077096;27;45444;-44
2022/03/09 04:48:31;;;;;;;;;76.75;56.50;;;;;6.71;52.45;101623.88;5077104;27;45310;-44
2022/03/09 04:50:56;;;;;;;;;77.00;60.75;;;;;6.70;52.29;101635.38;5077277;27;45215;-45
2022/03/09 04:53:22;;;;;;;;;86.00;55.50;;;;;6.73;52.23;101643.09;5076074;28;45402;-46
2022/03/09 04:55:47;;;;;;;;;75.25;57.25;;;;;6.73;52.31;101638.66;5077083;27;45965;-44
2022/03/09 04:58:12;;;;;;;;;73.50;56.75;;;;;6.74;51.68;101645.66;5077085;27;45294;-45
2022/03/09 05:00:37;;;;;;;;;79.25;59.75;;;;;6.74;51.61;101645.66;5077194;27;45270;-44
2022/03/09 05:03:03;;;;;;;;;71.75;53.50;;;;;6.70;51.59;101638.88;5075906;28;45222;-43
2022/03/09 05:05:29;;;;;;;;;70.00;54.75;;;;;6.68;51.27;101646.06;5076905;27;46176;-46
2022/03/09 05:07:54;;;;;;;;;87.75;57.75;;;;;6.66;52.82;101645.31;5076866;27;45466;-44
2022/03/09 05:10:20;;;;;;;;;72.75;55.50;;;;;6.63;52.33;101647.31;5076994;27;45312;-45
2022/03/09 05:12:45;;;;;;;;;67.75;54.25;;;;;6.60;52.77;101650.97;5077182;27;45537;-43
2022/03/09 05:15:10;;;;;;;;;70.50;53.00;;;;;6.55;52.09;101646.94;5076695;27;45330;-46
2022/03/09 05:17:43;;;;;;;;;69.25;53.50;;;;;6.55;53.26;101653.09;5076649;27;45425;-43
2022/03/09 05:20:09;;;;;;;;;71.50;54.00;;;;;6.51;54.28;101654.22;5077030;27;45308;-46
2022/03/09 05:22:35;;;;;;;;;67.50;48.50;;;;;6.35;52.69;101638.50;5076881;27;45248;-47
2022/03/09 05:25:01;;;;;;;;;67.75;52.25;;;;;6.45;54.48;101658.13;5076548;27;47563;-44
2022/03/09 05:27:27;;;;;;;;;72.75;51.75;;;;;6.43;55.13;101664.44;5076712;27;45457;-46
2022/03/09 05:29:52;;;;;;;;;66.25;46.75;;;;;6.40;55.18;101667.25;5076654;27;45344;-45
2022/03/09 05:32:18;;;;;;;;;65.75;46.25;;;;;6.34;54.79;101668.50;5077142;27;45389;-44
2022/03/09 05:34:46;;;;;;;;;65.25;47.00;;;;;6.29;54.60;101669.75;5076426;27;47114;-46
2022/03/09 05:37:11;;;;;;;;;65.50;49.50;;;;;6.27;55.82;101666.34;5076362;27;45219;-44
2022/03/09 05:39:37;;;;;;;;;63.50;46.75;;;;;6.21;55.93;101668.44;5076639;27;45319;-43
2022/03/09 05:42:02;;;;;;;;;66.50;49.25;;;;;6.20;56.00;101665.91;5076942;27;45315;-46
2022/03/09 05:44:28;;;;;;;;;64.00;51.00;;;;;6.16;56.21;101682.88;5079845;27;45750;-45
2022/03/09 05:46:54;;;;;;;;;70.50;51.75;;;;;6.15;56.19;101686.44;5079927;27;45386;-46
2022/03/09 05:49:20;;;;;;;;;65.25;48.00;;;;;6.16;54.86;101688.16;5080119;27;45460;-45
2022/03/09 05:51:46;;;;;;;;;69.00;53.50;;;;;6.17;56.06;101692.50;5079951;27;45494;-47
2022/03/09 05:54:11;;;;;;;;;60.25;50.75;;;;;6.15;56.60;101697.00;5079801;27;46131;-44
2022/03/09 05:56:36;;;;;;;;;63.00;49.00;;;;;6.09;56.31;101690.31;5079912;27;45264;-46
2022/03/09 05:59:02;;;;;;;;;64.50;51.75;;;;;6.10;56.79;101699.94;5079854;27;45482;-46
2022/03/09 06:01:27;;;;;;;;;66.00;48.25;;;;;6.12;57.03;101700.72;5080282;27;45388;-45
2022/03/09 06:03:53;;;;;;;;;64.50;46.25;;;;;6.13;56.43;101704.19;5079764;27;45439;-45
2022/03/09 06:06:18;;;;;;;;;63.25;50.50;;;;;6.11;56.87;101700.78;5079820;27;45389;-46
2022/03/09 06:08:43;;;;;;;;;66.75;46.50;;;;;6.12;56.91;101699.88;5079709;27;45515;-46
2022/03/09 06:11:09;;;;;;;;;64.00;49.00;;;;;6.17;56.31;101697.78;5079745;27;45326;-43
2022/03/09 06:13:34;;;;;;;;;76.75;54.50;;;;;6.16;56.59;101702.22;5079551;27;45960;-45
2022/03/09 06:16:00;;;;;;;;;66.00;49.25;;;;;6.24;57.15;101702.59;5078222;28;45276;-43
2022/03/09 06:18:26;;;;;;;;;66.75;48.25;;;;;6.32;56.75;101707.41;5079609;27;45233;-42
2022/03/09 06:20:51;;;;;;;;;62.75;43.00;;;;;6.35;56.47;101707.19;5079720;27;45301;-45
2022/03/09 06:23:18;;;;;;;;;67.00;48.75;;;;;6.38;56.39;101711.44;5079035;27;46030;-43
2022/03/09 06:25:43;;;;;;;;;66.00;48.50;;;;;6.43;56.05;101714.66;5079335;27;45414;-45
2022/03/09 06:28:09;;;;;;;;;70.25;50.75;;;;;6.48;56.22;101709.91;5079653;27;45268;-46
2022/03/09 06:30:34;;;;;;;;;61.75;49.00;;;;;6.54;55.68;101709.56;5079611;27;45528;-43
2022/03/09 06:32:59;;;;;;;;;63.00;46.50;;;;;6.63;55.53;101708.13;5079380;27;46448;-43
2022/03/09 06:35:26;;;;;;;;;68.00;50.00;;;;;6.64;55.68;101718.59;5079274;27;45437;-45
2022/03/09 06:37:52;;;;;;;;;55.50;44.50;;;;;6.65;56.09;101714.97;5079157;27;45382;-52
2022/03/09 06:40:18;;;;;;;;;68.00;50.25;;;;;6.68;56.11;101711.31;5079434;27;45338;-45
2022/03/09 06:42:43;;;;;;;;;74.25;53.75;;;;;6.69;56.14;101719.13;5078689;27;46165;-46
2022/03/09 06:45:09;;;;;;;;;70.25;49.25;;;;;6.68;56.10;101724.53;5078967;27;45260;-45
2022/03/09 06:47:38;;;;;;;;;65.75;49.00;;;;;6.68;56.05;101725.38;5079432;27;45317;-45
2022/03/09 06:50:05;;;;;;;;;68.00;51.25;;;;;6.63;56.24;101724.81;5079439;27;45337;-44
2022/03/09 06:52:31;;;;;;;;;70.00;53.25;;;;;6.58;56.03;101718.13;5079190;27;46155;-45
2022/03/09 06:55:01;;;;;;;;;69.00;50.75;;;;;6.54;57.31;101719.28;5078432;27;45330;-44
2022/03/09 06:57:28;;;;;;;;;71.00;54.00;;;;;6.51;57.36;101722.94;5079143;27;45327;-43
2022/03/09 06:59:53;;;;;;;;;67.25;52.75;;;;;6.50;57.97;101721.25;5078951;27;45240;-45
2022/03/09 07:02:19;;;;;;;;;68.25;50.25;;;;;6.50;58.22;101731.84;5078886;27;46164;-47
2022/03/09 07:04:44;;;;;;;;;62.50;49.00;;;;;6.48;58.34;101737.19;5078755;27;45397;-44
2022/03/09 07:07:09;;;;;;;;;61.25;48.00;;;;;6.47;58.72;101726.72;5078539;27;45319;-46
2022/03/09 07:09:35;;;;;;;;;72.25;52.50;;;;;6.48;58.64;101737.19;5078673;27;45446;-43
2022/03/09 07:12:00;;;;;;;;;69.75;48.25;;;;;6.45;58.81;101723.34;5078312;27;45721;-45
2022/03/09 07:14:26;;;;;;;;;74.75;48.00;;;;;6.58;58.52;101747.22;5078558;27;45897;-44
2022/03/09 07:16:51;;;;;;;;;72.75;50.75;;;;;6.58;58.36;101745.44;5078628;27;45552;-44
2022/03/09 07:19:16;;;;;;;;;64.75;51.00;;;;;6.75;57.76;101752.28;5078748;27;45405;-43
2022/03/09 07:21:42;;;;;;;;;69.50;51.00;;;;;6.93;57.75;101744.97;5078453;27;46096;-43
2022/03/09 07:24:07;;;;;;;;;64.75;51.00;;;;;7.07;58.39;101744.91;5078466;27;45488;-43
2022/03/09 07:26:33;;;;;;;;;70.50;50.25;;;;;7.17;57.63;101753.13;5078408;27;45244;-44
2022/03/09 07:28:59;;;;;;;;;66.50;47.75;;;;;7.24;57.61;101762.34;5078475;27;45342;-45
2022/03/09 07:31:24;;;;;;;;;61.25;46.75;;;;;7.27;57.17;101764.78;5078169;27;47378;-46
2022/03/09 07:33:49;;;;;;;;;64.25;47.75;;;;;7.40;57.90;101760.38;5078203;27;45301;-43
2022/03/09 07:36:15;;;;;;;;;65.25;48.50;;;;;7.53;57.69;101762.22;5078416;27;45782;-43
2022/03/09 07:38:40;;;;;;;;;66.75;49.75;;;;;7.58;57.07;101771.56;5078236;27;45381;-46
2022/03/09 07:41:06;;;;;;;;;59.25;45.50;;;;;7.65;56.81;101772.84;5078136;27;46086;-42
2022/03/09 07:43:31;;;;;;;;;66.00;45.75;;;;;7.72;57.01;101765.34;5077908;27;45518;-44
2022/03/09 07:45:57;;;;;;;;;58.25;45.25;;;;;7.87;56.70;101764.28;5078039;27;45854;-45
2022/03/09 07:48:22;;;;;;;;;68.25;50.75;;;;;7.97;56.78;101775.13;5078386;27;45326;-44
2022/03/09 07:50:47;;;;;;;;;59.75;45.00;;;;;8.07;57.50;101773.53;5077964;27;46051;-44
2022/03/09 07:53:13;;;;;;;;;58.75;46.50;;;;;8.26;56.63;101773.13;5077884;27;45300;-44
2022/03/09 07:55:39;;;;;;;;;61.50;44.75;;;;;8.35;55.85;101769.84;5077816;27;45425;-43
2022/03/09 07:58:04;;;;;;;;;55.75;44.00;;;;;8.47;56.03;101776.97;5078305;27;45351;-44
2022/03/09 08:00:30;;;;;;;;;59.00;46.25;;;;;8.42;57.05;101765.81;5078125;27;47139;-45
2022/03/09 08:02:55;;;;;;;;;60.25;44.00;;;;;8.57;56.76;101776.31;5077809;27;45396;-45
2022/03/09 08:05:21;;;;;;;;;62.75;46.50;;;;;8.61;56.69;101777.81;5077382;27;45463;-44
2022/03/09 08:07:46;;;;;;;;;77.00;56.50;;;;;8.66;56.25;101787.13;5078095;27;45533;-45
2022/03/09 08:10:13;;;;;;;;;63.25;50.25;;;;;8.77;56.10;101790.84;5077704;27;46326;-47
2022/03/09 08:12:39;;;;;;;;;60.75;45.75;;;;;8.79;56.45;101795.03;5077542;27;45290;-45
2022/03/09 08:15:05;;;;;;;;;63.00;43.00;;;;;8.83;56.62;101799.19;5077922;27;45278;-43
2022/03/09 08:17:31;;;;;;;;;59.75;47.50;;;;;8.88;57.74;101799.69;5078131;27;45260;-44
2022/03/09 08:19:56;;;;;;;;;63.75;43.50;;;;;8.96;57.59;101792.03;5077390;27;46094;-43
2022/03/09 08:22:22;;;;;;;;;54.00;43.00;;;;;9.06;57.59;101792.25;5077874;27;45342;-45
2022/03/09 08:24:47;;;;;;;;;53.75;43.50;;;;;9.17;57.48;101794.94;5077763;27;45441;-42
2022/03/09 08:27:13;;;;;;;;;59.25;43.25;;;;;9.20;57.20;101793.88;5077891;27;45534;-43
2022/03/09 08:29:39;;;;;;;;;39.25;33.25;;;;;9.22;56.79;101803.41;5077404;27;46032;-43
2022/03/09 08:32:05;;;;;;;;;61.00;44.25;;;;;9.25;57.76;101802.34;5077590;27;45359;-42
2022/03/09 08:34:30;;;;;;;;;58.00;42.50;;;;;9.27;57.36;101794.25;5077375;27;45628;-42
2022/03/09 08:36:55;;;;;;;;;49.75;39.50;;;;;9.28;58.28;101803.94;5077899;27;45321;-45
2022/03/09 08:39:21;;;;;;;;;53.25;38.25;;;;;9.28;58.44;101802.13;5076286;27;45456;-44
2022/03/09 08:41:46;;;;;;;;;42.00;34.75;;;;;9.25;59.14;101797.03;5076834;27;45339;-43
2022/03/09 08:44:12;;;;;;;;;37.50;30.25;;;;;9.28;57.73;101802.13;5011618;27;45605;-46
2022/03/09 08:46:37;;;;;;;;;43.00;32.75;;;;;9.26;60.70;101798.72;4975174;28;45252;-47
2022/03/09 08:49:03;;;;;;;;;42.00;37.00;;;;;9.32;59.30;101800.94;4974124;28;46281;-44
2022/03/09 08:51:28;;;;;;;;;47.50;36.25;;;;;9.41;59.21;101805.56;4974416;28;45324;-45
2022/03/09 08:53:53;;;;;;;;;45.25;40.75;;;;;9.51;60.39;101800.41;4974584;28;45428;-46
2022/03/09 08:56:20;;;;;;;;;33.75;26.75;;;;;9.56;60.06;101792.09;4974597;28;45324;-44
2022/03/09 08:58:46;;;;;;;;;38.25;32.25;;;;;9.65;60.21;101794.06;4974087;28;46340;-46
2022/03/09 09:01:11;;;;;;;;;38.75;33.25;;;;;9.67;60.43;101794.81;4972850;28;45438;-44
2022/03/09 09:03:37;;;;;;;;;38.00;30.00;;;;;9.70;60.33;101792.78;4974246;28;45368;-44
2022/03/09 09:06:02;;;;;;;;;31.00;26.50;;;;;9.74;59.89;101796.91;4974555;28;45397;-42
2022/03/09 09:08:27;;;;;;;;;28.00;26.50;;;;;9.82;59.95;101795.47;4973630;28;45367;-43
2022/03/09 09:10:53;;;;;;;;;37.50;27.50;;;;;9.98;60.27;101794.19;4973745;28;45521;-45
2022/03/09 09:13:19;;;;;;;;;40.75;30.25;;;;;10.04;58.75;101797.34;4974267;28;45256;-44
2022/03/09 09:15:45;;;;;;;;;44.75;36.00;;;;;10.05;59.81;101789.25;4974646;28;45438;-44
2022/03/09 09:18:10;;;;;;;;;49.50;33.00;;;;;10.11;59.55;101798.56;4972792;28;46145;-42
2022/03/09 09:20:36;;;;;;;;;31.50;27.25;;;;;10.15;60.33;101797.34;4973912;28;45437;-41
2022/03/09 09:23:02;;;;;;;;;32.75;26.75;;;;;10.20;59.54;101795.22;4974359;28;45490;-42
2022/03/09 09:25:28;;;;;;;;;27.00;21.25;;;;;10.19;60.28;101793.50;4974379;28;45660;-42
2022/03/09 09:27:54;;;;;;;;;28.25;20.25;;;;;10.24;57.32;101796.66;4973280;28;45957;-43
2022/03/09 09:30:20;;;;;;;;;27.00;23.75;;;;;10.21;58.82;101794.25;4973121;28;45418;-42
2022/03/09 09:32:47;;;;;;;;;27.00;23.50;;;;;10.21;60.14;101786.25;4974007;28;45440;-44
2022/03/09 09:35:13;;;;;;;;;24.50;20.25;;;;;10.40;61.49;101789.19;4974161;28;45366;-43
2022/03/09 09:37:38;;;;;;;;;30.50;27.00;;;;;10.86;60.28;101782.06;4973922;28;46410;-44
2022/03/09 09:40:07;;;;;;;;;29.00;22.25;;;;;11.26;58.56;101768.19;4973706;28;45768;-42
2022/03/09 09:42:33;;;;;;;;;28.00;19.00;;;;;11.67;57.98;101781.59;4972875;28;45397;-42
2022/03/09 09:45:00;;;;;;;;;20.00;17.50;;;;;12.78;55.88;101777.44;4974042;28;46092;-44
2022/03/09 09:47:29;;;;;;;;;24.00;21.50;;;;;14.64;52.27;101754.81;4972946;28;47095;-44
2022/03/09 09:49:58;;;;;;;;;23.33;20.67;;;;;17.04;47.20;101759.00;4973810;28;45412;-45
2022/03/09 09:52:27;;;;;;;;;22.33;19.00;;;;;18.98;42.45;101746.47;4973951;28;45356;-43
2022/03/09 09:54:54;;;;;;;;;27.33;20.67;;;;;20.37;39.33;101746.97;4973882;28;45445;-45
2022/03/09 09:57:21;;;;;;;;;22.33;17.33;;;;;21.49;36.20;101743.09;4973601;28;46357;-44
2022/03/09 09:59:47;;;;;;;;;22.33;19.00;;;;;22.08;36.00;101738.16;4973787;28;45402;-43
2022/03/09 10:02:12;;;;;;;;;17.67;16.33;;;;;23.04;34.37;101732.78;4973836;28;45407;-45
2022/03/09 10:04:42;;;;;;;;;18.67;16.67;;;;;21.96;36.58;101738.91;4973910;28;45625;-44
2022/03/09 10:07:07;;;;;;;;;17.33;16.33;;;;;22.41;34.13;101732.09;4973630;28;47406;-45
2022/03/09 10:09:39;;;;;;;;;26.00;17.00;;;;;22.34;35.27;101729.38;4972057;28;46098;-44
2022/03/09 10:12:06;;;;;;;;;15.67;13.67;;;;;22.32;34.58;101746.88;4973681;28;45410;-45
2022/03/09 10:14:46;;;;;;;;;18.67;16.67;;;;;23.61;33.20;101736.84;4973931;28;45389;-45
2022/03/09 10:17:17;;;;;;;;;18.00;14.33;;;;;24.32;31.65;101730.72;4973458;28;46182;-44
2022/03/09 10:19:50;;;;;;;;;21.67;17.33;;;;;24.42;31.28;101733.00;4973616;28;45184;-44
2022/03/09 10:22:35;;;;;;;;;14.75;13.25;;;;;24.16;32.03;101728.47;4973671;28;45432;-45
2022/03/09 10:25:09;;;;;;;;;15.25;13.00;;;;;23.82;31.61;101729.56;4973683;28;45306;-45
2022/03/09 10:27:35;;;;;;;;;17.50;13.25;;;;;23.79;31.29;101729.97;4973232;28;46348;-47
2022/03/09 10:30:03;;;;;;;;;15.00;13.00;;;;;23.89;32.42;101736.66;4976153;28;45301;-46
2022/03/09 10:32:52;;;;;;;;;11.50;11.50;;;;;24.05;32.06;101729.09;4976556;28;45402;-41
2022/03/09 10:35:37;;;;;;;;;16.50;13.25;;;;;23.42;32.07;101718.66;4976778;28;45417;-44
2022/03/09 10:38:08;;;;;;;;;14.75;12.00;;;;;23.18;32.78;101714.69;4976353;28;47259;-43
2022/03/09 10:40:42;;;;;;;;;14.80;14.20;;;;;22.96;34.14;101716.69;4976165;28;45356;-44
2022/03/09 10:43:15;;;;;;;;;11.00;11.00;;;;;22.94;34.83;101716.09;4976470;28;45259;-44
2022/03/09 10:46:05;;;;;;;;;12.50;11.25;;;;;23.30;33.92;101709.44;4976717;28;45333;-44
2022/03/09 10:48:57;;;;;;;;;11.75;10.75;;;;;23.55;32.67;101709.66;4976213;28;45427;-48
2022/03/09 10:51:44;;;;;;;;;15.80;12.00;;;;;24.02;32.08;101707.78;4976295;28;45456;-45
2022/03/09 10:54:11;;;;;;;;;11.50;9.50;;;;;24.28;31.28;101706.88;4976342;28;45299;-45
2022/03/09 10:56:38;;;;;;;;;13.50;11.25;;;;;24.74;30.66;101701.28;4976230;28;45490;-44
2022/03/09 10:59:12;;;;;;;;;14.50;11.25;;;;;25.85;30.80;101708.88;4976229;28;47328;-43
2022/03/09 11:01:38;;;;;;;;;14.00;11.00;;;;;27.57;26.86;101699.50;4976065;28;45402;-44
2022/03/09 11:04:15;;;;;;;;;15.50;13.25;;;;;29.42;24.92;101708.53;4976133;28;45361;-44
2022/03/09 11:06:46;;;;;;;;;13.75;12.00;;;;;30.38;23.56;101702.81;4976400;28;45224;-45
2022/03/09 11:09:14;;;;;;;;;14.80;10.40;;;;;31.32;22.02;101707.13;4975961;28;46209;-44
2022/03/09 11:11:41;;;;;;;;;15.80;14.40;;;;;32.20;20.79;101699.22;4975689;28;45544;-45
2022/03/09 11:14:08;;;;;;;;;10.00;9.00;;;;;33.35;20.40;101709.13;4976181;28;45240;-48
2022/03/09 11:16:34;;;;;;;;;12.40;10.40;;;;;33.74;19.14;101705.81;4976039;28;45340;-46